Time;durP1;ratioP1;P1;durP2;ratioP2;P2;SDS_P1;SDS_P2;PMS_P1;PMS_P2;Temp;Humidity;BMP_temperature;BMP_pressure;BME280_temperature;BME280_humidity;BME280_pressure;Samples;Min_cycle;Max_cycle;Signal;HPM_P1;HPM_P2
2023/05/11 05:00:28;;;;;;;4.33;1.33;;;13.50;97.20;;;;;;2121095;23;20188;-69
2023/05/11 05:01:19;;;;;;;1.30;1.00;;;13.50;97.20;;;;;;2120973;23;20176;-68
2023/05/11 05:02:11;;;;;;;1.85;1.20;;;13.50;97.20;;;;;;2121073;23;20199;-68
2023/05/11 05:03:02;;;;;;;1.25;1.15;;;13.50;97.20;;;;;;2121167;23;20187;-68
2023/05/11 05:03:54;;;;;;;3.72;1.17;;;13.50;97.20;;;;;;2121078;23;20173;-68
2023/05/11 05:04:45;;;;;;;1.30;1.20;;;13.50;97.20;;;;;;2121114;23;20526;-68
2023/05/11 05:05:36;;;;;;;1.70;1.10;;;13.50;97.20;;;;;;2121203;23;20195;-68
2023/05/11 05:06:27;;;;;;;2.97;1.00;;;13.50;97.20;;;;;;2121074;23;20180;-68
2023/05/11 05:07:19;;;;;;;1.20;1.10;;;13.50;97.20;;;;;;2121071;23;20169;-68
2023/05/11 05:08:10;;;;;;;3.42;1.13;;;13.60;97.20;;;;;;2121032;23;20181;-68
2023/05/11 05:09:01;;;;;;;1.77;1.07;;;13.60;97.20;;;;;;2121102;23;20173;-68
2023/05/11 05:09:52;;;;;;;1.27;0.98;;;13.60;97.20;;;;;;2120760;23;20821;-68
2023/05/11 05:10:44;;;;;;;1.77;1.13;;;13.60;97.20;;;;;;2121045;23;20660;-68
2023/05/11 05:11:34;;;;;;;1.10;1.00;;;13.60;97.20;;;;;;2120948;23;20202;-68
2023/05/11 05:12:26;;;;;;;2.93;1.17;;;13.60;97.20;;;;;;2121085;23;20179;-68
2023/05/11 05:13:17;;;;;;;1.10;1.00;;;13.60;97.20;;;;;;2120908;23;20181;-68
2023/05/11 05:14:08;;;;;;;3.30;1.03;;;13.60;97.20;;;;;;2121088;23;20655;-68
2023/05/11 05:14:59;;;;;;;1.42;1.10;;;13.60;97.20;;;;;;2121045;23;20188;-68
2023/05/11 05:15:52;;;;;;;1.20;1.10;;;13.60;97.20;;;;;;2121051;23;20180;-68
2023/05/11 05:16:43;;;;;;;1.52;1.13;;;13.60;97.20;;;;;;2120911;23;20188;-68
2023/05/11 05:17:35;;;;;;;2.10;0.90;;;13.60;97.20;;;;;;2121070;23;20172;-68
2023/05/11 05:18:26;;;;;;;1.30;1.15;;;13.50;97.20;;;;;;2120956;23;20247;-68
2023/05/11 05:19:17;;;;;;;1.47;1.07;;;13.60;97.20;;;;;;2120819;23;20239;-68
2023/05/11 05:20:08;;;;;;;1.20;1.08;;;13.60;97.20;;;;;;2120639;23;20411;-68
2023/05/11 05:21:00;;;;;;;1.50;1.40;;;13.60;97.20;;;;;;2120964;23;20193;-68
2023/05/11 05:21:51;;;;;;;2.40;2.20;;;13.60;97.20;;;;;;2120960;23;20188;-68
2023/05/11 05:22:43;;;;;;;1.40;1.13;;;13.60;97.20;;;;;;2121069;23;20264;-68
2023/05/11 05:23:33;;;;;;;1.38;1.27;;;13.60;97.20;;;;;;2120921;23;20404;-68
2023/05/11 05:24:25;;;;;;;1.43;1.30;;;13.60;97.20;;;;;;2120961;23;20176;-69
2023/05/11 05:25:16;;;;;;;2.30;1.10;;;13.70;97.20;;;;;;2121034;23;20184;-68
2023/05/11 05:26:07;;;;;;;4.40;1.53;;;13.70;97.20;;;;;;2121033;23;20196;-68
2023/05/11 05:26:58;;;;;;;2.03;1.30;;;13.70;97.20;;;;;;2121034;23;20180;-68
2023/05/11 05:27:50;;;;;;;4.10;1.40;;;13.70;97.20;;;;;;2121000;23;20176;-68
2023/05/11 05:28:40;;;;;;;1.83;1.35;;;13.70;97.20;;;;;;2121034;23;20180;-68
2023/05/11 05:29:32;;;;;;;1.83;1.17;;;13.70;97.20;;;;;;2120812;23;20177;-68
2023/05/11 05:30:23;;;;;;;3.20;1.10;;;13.70;97.20;;;;;;2120168;23;20177;-68
2023/05/11 05:31:16;;;;;;;1.40;1.20;;;13.70;97.20;;;;;;2120706;23;20171;-68
2023/05/11 05:32:07;;;;;;;1.52;1.08;;;13.70;97.20;;;;;;2121040;23;20263;-68
2023/05/11 05:32:59;;;;;;;1.30;1.10;;;13.80;97.20;;;;;;2121012;23;20180;-68
2023/05/11 05:33:49;;;;;;;1.33;1.10;;;13.80;97.20;;;;;;2121026;23;20188;-68
2023/05/11 05:34:42;;;;;;;1.83;1.20;;;13.80;97.20;;;;;;2121052;23;20179;-68
2023/05/11 05:35:32;;;;;;;1.13;1.02;;;13.80;97.20;;;;;;2121020;23;20229;-68
2023/05/11 05:36:24;;;;;;;1.57;1.23;;;13.80;97.20;;;;;;2120991;23;20192;-68
2023/05/11 05:37:15;;;;;;;1.77;1.20;;;13.90;97.20;;;;;;2121034;23;20188;-68
2023/05/11 05:38:07;;;;;;;1.50;1.00;;;13.90;97.20;;;;;;2121053;23;20260;-68
2023/05/11 05:38:57;;;;;;;2.20;1.17;;;13.90;97.20;;;;;;2121410;23;20180;-68
2023/05/11 05:39:49;;;;;;;4.63;1.57;;;13.90;97.20;;;;;;2121069;23;20450;-68
2023/05/11 05:40:40;;;;;;;2.72;1.70;;;13.90;97.20;;;;;;2121514;23;20200;-68
2023/05/11 05:41:32;;;;;;;1.37;1.27;;;13.90;97.20;;;;;;2121535;23;20172;-68
2023/05/11 05:42:22;;;;;;;5.25;1.42;;;13.90;97.20;;;;;;2121690;23;20184;-68
2023/05/11 05:43:14;;;;;;;1.27;1.00;;;13.90;97.20;;;;;;2121693;23;20179;-68
2023/05/11 05:44:05;;;;;;;1.92;1.00;;;13.90;97.20;;;;;;2121623;23;20212;-68
2023/05/11 05:44:57;;;;;;;1.33;1.23;;;13.90;97.20;;;;;;2121634;23;20181;-68
2023/05/11 05:45:47;;;;;;;2.15;1.38;;;13.90;97.20;;;;;;2121617;23;20180;-67
2023/05/11 05:46:40;;;;;;;1.67;1.10;;;13.90;97.20;;;;;;2121473;23;20178;-68
2023/05/11 05:47:31;;;;;;;2.88;1.10;;;14.00;97.20;;;;;;2121619;23;20184;-67
2023/05/11 05:48:23;;;;;;;2.03;1.20;;;13.90;97.20;;;;;;2121528;23;20177;-68
2023/05/11 05:49:14;;;;;;;1.80;1.30;;;14.00;97.20;;;;;;2121677;23;20183;-67
2023/05/11 05:50:06;;;;;;;3.13;1.47;;;14.00;97.20;;;;;;2121232;23;20175;-68
2023/05/11 05:50:59;;;;;;;1.25;1.10;;;14.00;97.20;;;;;;2121457;23;20668;-68
2023/05/11 05:51:51;;;;;;;1.13;1.02;;;14.00;97.20;;;;;;2121536;23;20191;-68
2023/05/11 05:52:41;;;;;;;2.28;1.20;;;14.00;97.20;;;;;;2121570;23;20219;-68
2023/05/11 05:53:33;;;;;;;2.63;1.23;;;14.00;97.20;;;;;;2121617;23;20184;-68
2023/05/11 05:54:24;;;;;;;3.58;1.10;;;14.10;97.20;;;;;;2121650;23;20187;-68
2023/05/11 05:55:16;;;;;;;2.60;1.13;;;14.10;97.20;;;;;;2121625;23;20176;-68
2023/05/11 05:56:06;;;;;;;1.50;1.40;;;14.10;97.20;;;;;;2121607;23;20408;-68
2023/05/11 05:56:58;;;;;;;1.47;1.17;;;14.10;97.20;;;;;;2121511;23;20172;-68
2023/05/11 05:57:49;;;;;;;1.13;1.02;;;14.10;97.20;;;;;;2121551;23;20404;-68
2023/05/11 05:58:42;;;;;;;2.00;1.17;;;14.10;97.20;;;;;;2121560;23;20168;-68
2023/05/11 05:59:33;;;;;;;1.33;1.23;;;14.10;97.20;;;;;;2121268;23;20620;-68
2023/05/11 06:00:24;;;;;;;2.13;1.20;;;14.10;97.20;;;;;;2121523;23;20177;-68
2023/05/11 06:01:15;;;;;;;3.50;1.20;;;14.10;97.20;;;;;;2121497;23;20184;-68
2023/05/11 06:02:09;;;;;;;1.50;1.07;;;14.10;97.20;;;;;;2121619;23;20176;-68
2023/05/11 06:02:59;;;;;;;1.83;1.10;;;14.20;97.20;;;;;;2121546;23;20180;-68
2023/05/11 06:03:51;;;;;;;2.40;1.10;;;14.20;97.20;;;;;;2121561;23;20177;-68
2023/05/11 06:04:42;;;;;;;1.25;1.13;;;14.20;97.20;;;;;;2121555;23;20220;-67
2023/05/11 06:05:34;;;;;;;1.20;1.10;;;14.20;97.20;;;;;;2121610;23;20629;-68
2023/05/11 06:06:24;;;;;;;1.58;1.30;;;14.20;97.20;;;;;;2121527;23;20184;-68
2023/05/11 06:07:16;;;;;;;1.63;1.13;;;14.20;97.20;;;;;;2121589;23;20169;-68
2023/05/11 06:08:07;;;;;;;1.25;1.13;;;14.20;97.20;;;;;;2121531;23;20723;-68
2023/05/11 06:08:58;;;;;;;1.50;1.13;;;14.20;97.20;;;;;;2121397;23;20502;-68
2023/05/11 06:09:49;;;;;;;1.42;1.20;;;14.20;97.20;;;;;;2121213;23;20629;-68
2023/05/11 06:10:41;;;;;;;3.33;1.20;;;14.20;97.20;;;;;;2121461;23;20530;-68
2023/05/11 06:11:32;;;;;;;1.27;0.88;;;14.20;97.20;;;;;;2121523;23;20184;-68
2023/05/11 06:12:23;;;;;;;1.70;1.20;;;14.20;97.20;;;;;;2121547;23;20168;-68
2023/05/11 06:13:14;;;;;;;1.45;1.30;;;14.20;97.20;;;;;;2121570;23;20180;-68
2023/05/11 06:14:06;;;;;;;1.57;1.10;;;14.30;97.20;;;;;;2121415;23;20204;-68
2023/05/11 06:14:57;;;;;;;1.77;1.08;;;14.30;97.20;;;;;;2121477;23;20181;-68
2023/05/11 06:15:48;;;;;;;1.77;1.10;;;14.30;97.20;;;;;;2121313;23;20172;-68
2023/05/11 06:16:39;;;;;;;1.45;1.20;;;14.30;97.20;;;;;;2121316;23;20180;-68
2023/05/11 06:17:32;;;;;;;1.40;1.10;;;14.30;97.20;;;;;;2121539;23;20168;-68
2023/05/11 06:18:23;;;;;;;4.63;1.52;;;14.30;97.20;;;;;;2121511;23;20636;-68
2023/05/11 06:19:15;;;;;;;1.13;1.03;;;14.30;97.20;;;;;;2121561;23;20485;-68
2023/05/11 06:20:07;;;;;;;1.45;1.00;;;14.40;97.20;;;;;;2120802;23;20200;-68
2023/05/11 06:20:59;;;;;;;1.95;1.25;;;14.40;97.20;;;;;;2120248;23;20196;-68
2023/05/11 06:21:50;;;;;;;3.15;1.33;;;14.40;97.20;;;;;;2121238;23;20189;-68
2023/05/11 06:22:41;;;;;;;1.20;1.00;;;14.40;97.20;;;;;;2121426;23;20180;-68
2023/05/11 06:23:32;;;;;;;2.97;1.20;;;14.40;97.20;;;;;;2121396;23;20196;-68
2023/05/11 06:24:24;;;;;;;1.40;1.13;;;14.40;97.20;;;;;;2121450;23;20621;-68
2023/05/11 06:25:14;;;;;;;1.45;1.35;;;14.40;97.20;;;;;;2121477;23;20190;-69
2023/05/11 06:26:06;;;;;;;1.13;1.03;;;14.40;97.20;;;;;;2120143;23;20179;-69
2023/05/11 06:26:57;;;;;;;8.40;1.30;;;14.50;97.20;;;;;;2121042;23;20729;-69
2023/05/11 06:27:49;;;;;;;1.40;1.23;;;14.50;97.20;;;;;;2121422;23;20232;-69
2023/05/11 06:28:40;;;;;;;2.30;1.02;;;14.50;97.20;;;;;;2120962;23;20419;-70
2023/05/11 06:29:31;;;;;;;1.33;1.13;;;14.50;97.20;;;;;;2120759;23;20180;-69
2023/05/11 06:30:22;;;;;;;3.45;1.10;;;14.50;97.20;;;;;;2120640;23;20173;-68
2023/05/11 06:31:14;;;;;;;2.10;1.30;;;14.50;97.20;;;;;;2121240;23;20632;-69
2023/05/11 06:32:06;;;;;;;1.85;1.75;;;14.50;97.20;;;;;;2121344;23;20404;-69
2023/05/11 06:32:59;;;;;;;2.10;1.48;;;14.50;97.20;;;;;;2121399;23;20181;-69
2023/05/11 06:33:50;;;;;;;1.40;1.27;;;14.50;97.20;;;;;;2121336;23;20180;-69
2023/05/11 06:34:41;;;;;;;3.77;1.30;;;14.50;97.20;;;;;;2121119;23;20183;-68
2023/05/11 06:35:32;;;;;;;1.42;1.00;;;14.50;97.20;;;;;;2121097;23;20404;-70
2023/05/11 06:36:24;;;;;;;1.30;1.10;;;14.50;97.20;;;;;;2120442;23;20202;-67
2023/05/11 06:37:19;;;;;;;1.20;1.00;;;14.50;97.20;;;;;;2121273;23;20181;-68
2023/05/11 06:38:11;;;;;;;1.60;1.50;;;14.50;97.20;;;;;;2121116;23;20176;-69
2023/05/11 06:39:02;;;;;;;2.25;1.05;;;14.50;97.20;;;;;;2121161;23;20187;-69
2023/05/11 06:39:54;;;;;;;2.40;1.00;;;14.50;97.20;;;;;;2120401;23;20181;-68
2023/05/11 06:40:45;;;;;;;2.00;1.30;;;14.50;97.20;;;;;;2121103;23;20436;-69
2023/05/11 06:41:37;;;;;;;5.90;1.30;;;14.50;97.20;;;;;;2120957;23;20184;-68
2023/05/11 06:42:28;;;;;;;1.63;1.17;;;14.50;97.20;;;;;;2121394;23;20196;-69
2023/05/11 06:43:19;;;;;;;1.17;1.07;;;14.50;97.20;;;;;;2121315;23;20173;-70
2023/05/11 06:44:11;;;;;;;1.40;1.15;;;14.50;97.20;;;;;;2121356;23;20177;-69
2023/05/11 06:45:03;;;;;;;1.42;1.33;;;14.50;97.20;;;;;;2121162;23;20208;-69
2023/05/11 06:45:54;;;;;;;2.03;1.20;;;14.50;97.20;;;;;;2121343;23;20180;-69
2023/05/11 06:46:46;;;;;;;1.30;1.07;;;14.50;97.20;;;;;;2119556;23;20180;-69
2023/05/11 06:47:37;;;;;;;1.70;1.10;;;14.50;97.20;;;;;;2121314;23;20732;-69
2023/05/11 06:48:30;;;;;;;3.20;1.37;;;14.50;97.20;;;;;;2121305;23;20503;-68
2023/05/11 06:49:20;;;;;;;1.20;1.10;;;14.50;97.20;;;;;;2121096;23;20177;-68
2023/05/11 06:50:12;;;;;;;1.90;1.30;;;14.50;97.20;;;;;;2120064;23;20199;-68
2023/05/11 06:51:03;;;;;;;1.30;1.10;;;14.50;97.20;;;;;;2121124;23;20184;-68
2023/05/11 06:51:55;;;;;;;1.30;1.20;;;14.50;97.20;;;;;;2120503;23;20230;-69
2023/05/11 06:52:46;;;;;;;3.58;1.30;;;14.50;97.20;;;;;;2120300;23;20185;-69
2023/05/11 06:53:37;;;;;;;1.63;1.10;;;14.50;97.20;;;;;;2120552;23;20180;-69
2023/05/11 06:54:28;;;;;;;2.13;1.10;;;14.50;97.20;;;;;;2120460;23;20192;-69
2023/05/11 06:55:20;;;;;;;2.13;1.15;;;14.50;97.20;;;;;;2120763;23;20169;-69
2023/05/11 06:56:11;;;;;;;3.05;1.30;;;14.50;97.20;;;;;;2121300;23;20188;-70
2023/05/11 06:57:03;;;;;;;1.80;1.30;;;14.60;97.20;;;;;;2121256;23;20173;-69
2023/05/11 06:57:53;;;;;;;1.42;1.20;;;14.60;97.20;;;;;;2121367;23;20180;-69
2023/05/11 06:58:45;;;;;;;1.90;1.30;;;14.60;97.20;;;;;;2121249;23;20695;-69
2023/05/11 06:59:36;;;;;;;2.30;1.30;;;14.60;97.20;;;;;;2120397;23;20540;-69
2023/05/11 07:00:27;;;;;;;1.53;1.23;;;14.60;97.20;;;;;;2121130;23;20504;-68
2023/05/11 07:01:18;;;;;;;1.63;1.20;;;14.60;97.20;;;;;;2121076;23;20187;-69
2023/05/11 07:02:10;;;;;;;1.40;1.20;;;14.60;97.20;;;;;;2121282;23;20176;-69
2023/05/11 07:03:01;;;;;;;1.70;1.10;;;14.70;97.20;;;;;;2120683;23;20181;-68
2023/05/11 07:03:55;;;;;;;2.03;1.67;;;14.60;97.20;;;;;;2121300;23;20179;-69
2023/05/11 07:04:46;;;;;;;1.58;1.40;;;14.70;97.20;;;;;;2121152;23;20192;-68
2023/05/11 07:05:38;;;;;;;1.43;1.27;;;14.70;97.20;;;;;;2121165;23;20177;-69
2023/05/11 07:06:30;;;;;;;2.78;1.15;;;14.70;97.20;;;;;;2121198;23;20280;-68
2023/05/11 07:07:21;;;;;;;2.80;1.35;;;14.70;97.20;;;;;;2121111;23;20512;-68
2023/05/11 07:08:13;;;;;;;2.03;1.30;;;14.70;97.20;;;;;;2121172;23;20255;-67
2023/05/11 07:09:04;;;;;;;1.45;1.25;;;14.70;97.20;;;;;;2121165;23;20411;-68
2023/05/11 07:09:55;;;;;;;2.53;1.27;;;14.70;97.20;;;;;;2120382;23;20176;-68
2023/05/11 07:10:47;;;;;;;2.85;1.55;;;14.70;97.20;;;;;;2121091;23;20584;-68
2023/05/11 07:11:38;;;;;;;2.20;2.00;;;14.70;97.20;;;;;;2121090;23;20516;-68
2023/05/11 07:12:30;;;;;;;3.63;1.90;;;14.70;97.20;;;;;;2121103;23;20484;-68
2023/05/11 07:13:20;;;;;;;2.92;1.73;;;14.70;97.20;;;;;;2121213;23;20176;-68
2023/05/11 07:14:12;;;;;;;2.20;1.80;;;14.70;97.20;;;;;;2121188;23;20176;-68
2023/05/11 07:15:03;;;;;;;3.88;2.08;;;14.70;97.20;;;;;;2121098;23;20185;-68
2023/05/11 07:15:55;;;;;;;2.47;1.30;;;14.80;97.20;;;;;;2121229;23;20179;-67
2023/05/11 07:16:46;;;;;;;2.17;1.67;;;14.80;97.20;;;;;;2121052;23;20323;-67
2023/05/11 07:17:38;;;;;;;1.55;1.45;;;14.80;97.20;;;;;;2121214;23;20203;-68
2023/05/11 07:18:29;;;;;;;1.60;1.30;;;14.80;97.20;;;;;;2121193;23;20180;-68
2023/05/11 07:19:22;;;;;;;1.30;1.20;;;14.90;97.20;;;;;;2119857;23;20625;-67
2023/05/11 07:20:13;;;;;;;3.10;1.40;;;14.90;97.20;;;;;;2119944;23;20177;-67
2023/05/11 07:21:04;;;;;;;2.90;1.70;;;14.90;97.20;;;;;;2120444;23;20221;-68
2023/05/11 07:21:55;;;;;;;1.25;1.15;;;14.90;97.20;;;;;;2120462;23;20517;-67
2023/05/11 07:22:47;;;;;;;1.83;1.73;;;14.90;97.20;;;;;;2121326;23;20176;-68
2023/05/11 07:23:37;;;;;;;1.88;1.20;;;15.00;97.20;;;;;;2121255;23;20180;-68
2023/05/11 07:24:29;;;;;;;3.10;1.20;;;15.00;97.20;;;;;;2121137;23;20173;-67
2023/05/11 07:25:20;;;;;;;2.65;1.40;;;15.00;97.20;;;;;;2121114;23;20169;-68
2023/05/11 07:26:12;;;;;;;1.40;1.30;;;15.10;97.20;;;;;;2120973;23;20172;-68
2023/05/11 07:27:02;;;;;;;1.40;1.30;;;15.10;97.20;;;;;;2121257;23;20181;-67
2023/05/11 07:27:54;;;;;;;2.53;1.10;;;15.10;97.20;;;;;;2121112;23;20177;-68
2023/05/11 07:28:45;;;;;;;1.20;0.98;;;15.10;97.20;;;;;;2121002;23;20419;-68
2023/05/11 07:29:37;;;;;;;2.90;1.50;;;15.10;97.20;;;;;;2120277;23;20172;-68
2023/05/11 07:30:27;;;;;;;3.40;1.88;;;15.10;97.20;;;;;;2120883;23;20187;-68
2023/05/11 07:31:19;;;;;;;2.93;2.00;;;15.10;97.20;;;;;;2121074;23;20176;-68
2023/05/11 07:32:10;;;;;;;2.05;1.50;;;15.10;97.20;;;;;;2121147;23;20187;-68
2023/05/11 07:33:02;;;;;;;1.70;1.60;;;15.10;97.20;;;;;;2121142;23;20172;-68
2023/05/11 07:33:53;;;;;;;2.40;1.52;;;15.10;97.20;;;;;;2120866;23;20229;-68
2023/05/11 07:34:47;;;;;;;1.23;1.07;;;15.10;97.20;;;;;;2121184;23;20180;-68
2023/05/11 07:35:38;;;;;;;1.30;1.20;;;15.10;97.20;;;;;;2121193;23;20211;-68
2023/05/11 07:36:30;;;;;;;2.40;1.30;;;15.10;97.20;;;;;;2121156;23;20630;-68
2023/05/11 07:37:21;;;;;;;4.25;1.30;;;15.10;97.20;;;;;;2121143;23;20261;-68
2023/05/11 07:38:12;;;;;;;1.30;1.00;;;15.10;97.20;;;;;;2121000;23;20173;-68
2023/05/11 07:39:03;;;;;;;1.45;1.30;;;15.10;97.20;;;;;;2121080;23;20184;-68
2023/05/11 07:39:55;;;;;;;3.20;1.70;;;15.10;97.20;;;;;;2120146;23;20177;-68
2023/05/11 07:40:46;;;;;;;2.17;1.80;;;15.10;97.20;;;;;;2120964;23;20728;-68
2023/05/11 07:41:37;;;;;;;1.70;1.60;;;15.10;97.20;;;;;;2121031;23;20625;-68
2023/05/11 07:42:29;;;;;;;1.33;1.23;;;15.10;97.20;;;;;;2121095;23;20796;-68
2023/05/11 07:43:20;;;;;;;1.38;1.20;;;15.20;97.20;;;;;;2121127;23;20172;-67
2023/05/11 07:44:11;;;;;;;2.65;1.30;;;15.20;97.20;;;;;;2121094;23;20180;-67
2023/05/11 07:45:03;;;;;;;1.40;1.30;;;15.20;97.20;;;;;;2121108;23;20172;-68
2023/05/11 07:45:53;;;;;;;2.67;1.52;;;15.20;97.20;;;;;;2120922;23;20183;-68
2023/05/11 07:46:45;;;;;;;1.60;1.40;;;15.20;97.20;;;;;;2121005;23;20259;-68
2023/05/11 07:47:36;;;;;;;2.08;1.38;;;15.30;97.20;;;;;;2121103;23;20188;-68
2023/05/11 07:48:28;;;;;;;1.50;1.23;;;15.30;97.20;;;;;;2121114;23;20176;-68
2023/05/11 07:49:18;;;;;;;1.65;1.30;;;15.30;97.20;;;;;;2121049;23;20231;-68
2023/05/11 07:50:11;;;;;;;2.30;1.50;;;15.30;97.20;;;;;;2120135;23;20196;-67
2023/05/11 07:51:02;;;;;;;0.98;0.90;;;15.30;97.20;;;;;;2121048;23;20188;-68
2023/05/11 07:51:54;;;;;;;2.10;1.35;;;15.30;97.20;;;;;;2120515;23;20184;-68
2023/05/11 07:52:45;;;;;;;1.38;1.20;;;15.30;97.20;;;;;;2121077;23;20512;-67
2023/05/11 07:53:37;;;;;;;1.40;1.30;;;15.30;97.20;;;;;;2120982;23;20206;-68
2023/05/11 07:54:28;;;;;;;1.77;1.25;;;15.30;97.20;;;;;;2120917;23;20183;-68
2023/05/11 07:55:23;;;;;;;1.73;1.20;;;15.30;97.20;;;;;;2121055;23;20184;-68
2023/05/11 07:56:14;;;;;;;2.47;1.20;;;15.30;97.20;;;;;;2121013;23;20157;-68
2023/05/11 07:57:06;;;;;;;3.70;1.30;;;15.20;97.20;;;;;;2121125;23;20180;-68
2023/05/11 07:57:57;;;;;;;2.40;1.10;;;15.20;97.20;;;;;;2121003;23;20185;-68
2023/05/11 07:58:48;;;;;;;1.10;1.00;;;15.20;97.20;;;;;;2120798;23;20180;-68
2023/05/11 07:59:40;;;;;;;1.73;1.20;;;15.20;97.20;;;;;;2120067;23;20183;-68
2023/05/11 08:00:31;;;;;;;1.85;1.15;;;15.20;97.20;;;;;;2120893;23;20203;-68
2023/05/11 08:01:23;;;;;;;2.47;1.20;;;15.20;97.20;;;;;;2120918;23;20620;-68
2023/05/11 08:02:13;;;;;;;1.08;0.98;;;15.20;97.20;;;;;;2121097;23;20184;-67
2023/05/11 08:03:06;;;;;;;1.83;1.30;;;15.20;97.20;;;;;;2120903;23;20579;-68
2023/05/11 08:03:56;;;;;;;2.92;1.23;;;15.20;97.20;;;;;;2121023;23;20740;-68
2023/05/11 08:04:48;;;;;;;1.40;1.30;;;15.20;97.20;;;;;;2121049;23;20509;-68
2023/05/11 08:05:40;;;;;;;1.33;1.23;;;15.20;97.20;;;;;;2121104;23;20473;-68
2023/05/11 08:06:32;;;;;;;1.60;1.50;;;15.20;97.20;;;;;;2121019;23;20180;-68
2023/05/11 08:07:23;;;;;;;1.50;1.40;;;15.20;97.20;;;;;;2121081;23;20184;-68
2023/05/11 08:08:14;;;;;;;3.83;1.50;;;15.20;97.20;;;;;;2121038;23;20177;-68
2023/05/11 08:09:05;;;;;;;2.15;1.50;;;15.20;97.20;;;;;;2121167;23;20633;-68
2023/05/11 08:09:57;;;;;;;3.33;1.30;;;15.20;97.20;;;;;;2120142;23;20521;-68
2023/05/11 08:10:48;;;;;;;3.95;2.00;;;15.20;97.20;;;;;;2120878;23;20197;-68
2023/05/11 08:11:39;;;;;;;2.17;1.80;;;15.20;97.20;;;;;;2120926;23;20175;-68
2023/05/11 08:12:30;;;;;;;5.47;2.05;;;15.20;97.20;;;;;;2120798;23;20189;-68
2023/05/11 08:13:22;;;;;;;3.30;1.67;;;15.20;97.20;;;;;;2121008;23;20179;-67
2023/05/11 08:14:13;;;;;;;2.40;1.60;;;15.20;97.20;;;;;;2120988;23;20627;-68
2023/05/11 08:15:05;;;;;;;1.55;1.33;;;15.20;97.20;;;;;;2121216;23;20501;-68
2023/05/11 08:15:56;;;;;;;3.35;1.33;;;15.20;97.20;;;;;;2121044;23;20237;-67
2023/05/11 08:16:48;;;;;;;1.80;1.40;;;15.20;97.20;;;;;;2121010;23;20191;-68
2023/05/11 08:17:39;;;;;;;1.55;1.33;;;15.20;97.20;;;;;;2121046;23;20204;-68
2023/05/11 08:18:30;;;;;;;1.60;1.50;;;15.20;97.20;;;;;;2120944;23;20632;-68
2023/05/11 08:19:21;;;;;;;2.03;1.60;;;15.20;97.20;;;;;;2119720;23;20408;-68
2023/05/11 08:20:13;;;;;;;2.60;1.63;;;15.20;97.20;;;;;;2119921;23;20179;-67
2023/05/11 08:21:06;;;;;;;2.70;1.40;;;15.10;97.20;;;;;;2120794;23;20242;-67
2023/05/11 08:21:58;;;;;;;1.58;1.45;;;15.10;97.20;;;;;;2120936;23;20675;-68
2023/05/11 08:22:48;;;;;;;1.75;1.40;;;15.10;97.20;;;;;;2121005;23;20184;-68
2023/05/11 08:23:40;;;;;;;1.43;1.33;;;15.10;97.20;;;;;;2121032;23;20182;-68
2023/05/11 08:24:31;;;;;;;3.72;1.67;;;15.10;97.20;;;;;;2121002;23;20173;-68
2023/05/11 08:25:23;;;;;;;1.60;1.50;;;15.10;97.20;;;;;;2120841;23;20175;-68
2023/05/11 08:26:14;;;;;;;2.72;1.60;;;15.10;97.20;;;;;;2120885;23;20180;-68
2023/05/11 08:27:06;;;;;;;1.87;1.67;;;15.10;97.20;;;;;;2121039;23;20177;-68
2023/05/11 08:27:56;;;;;;;2.40;1.40;;;15.10;97.20;;;;;;2121019;23;20184;-68
2023/05/11 08:28:48;;;;;;;1.50;1.27;;;15.10;97.20;;;;;;2121069;23;20251;-68
2023/05/11 08:29:39;;;;;;;1.67;1.58;;;15.10;97.20;;;;;;2120130;23;20522;-68
2023/05/11 08:30:31;;;;;;;1.30;1.20;;;15.10;97.20;;;;;;2120541;23;20247;-68
2023/05/11 08:31:21;;;;;;;1.45;1.35;;;15.10;97.20;;;;;;2120961;23;20165;-68
2023/05/11 08:32:13;;;;;;;2.10;1.50;;;15.10;97.20;;;;;;2120957;23;20172;-68
2023/05/11 08:33:04;;;;;;;1.58;1.48;;;15.10;97.20;;;;;;2121039;23;20180;-68
2023/05/11 08:33:55;;;;;;;3.10;1.50;;;15.10;97.20;;;;;;2121021;23;20620;-68
2023/05/11 08:34:46;;;;;;;2.28;1.50;;;15.20;97.20;;;;;;2121056;23;20184;-68
2023/05/11 08:35:39;;;;;;;1.60;1.40;;;15.20;97.20;;;;;;2121024;23;20207;-68
2023/05/11 08:36:32;;;;;;;1.65;1.55;;;15.20;97.20;;;;;;2120998;23;20176;-68
2023/05/11 08:37:24;;;;;;;3.17;1.35;;;15.30;97.20;;;;;;2121046;23;20637;-68
2023/05/11 08:38:14;;;;;;;1.90;1.48;;;15.30;97.20;;;;;;2121000;23;20181;-68
2023/05/11 08:39:06;;;;;;;1.80;1.13;;;15.30;97.20;;;;;;2121058;23;20183;-68
2023/05/11 08:39:57;;;;;;;1.80;1.65;;;15.30;97.20;;;;;;2120078;23;20192;-68
2023/05/11 08:40:50;;;;;;;1.60;1.20;;;15.40;97.20;;;;;;2120791;23;20199;-68
2023/05/11 08:41:42;;;;;;;1.38;1.20;;;15.40;97.20;;;;;;2120863;23;20180;-68
2023/05/11 08:42:34;;;;;;;1.83;1.38;;;15.30;97.20;;;;;;2121035;23;20482;-67
2023/05/11 08:43:26;;;;;;;1.75;1.23;;;15.30;97.20;;;;;;2121024;23;20184;-68
2023/05/11 08:44:19;;;;;;;3.55;1.80;;;15.30;97.20;;;;;;2121026;23;20477;-67
2023/05/11 08:45:11;;;;;;;2.40;1.65;;;15.30;97.20;;;;;;2120997;23;20181;-68
2023/05/11 08:46:06;;;;;;;2.00;1.40;;;15.20;97.20;;;;;;2121014;23;20251;-68
2023/05/11 08:46:58;;;;;;;3.00;1.40;;;15.20;97.20;;;;;;2121138;23;20176;-68
2023/05/11 08:47:50;;;;;;;1.50;1.40;;;15.20;97.20;;;;;;2121013;23;20172;-68
2023/05/11 08:48:43;;;;;;;3.03;1.30;;;15.20;97.20;;;;;;2121003;23;20667;-68
2023/05/11 08:49:36;;;;;;;2.17;1.30;;;15.20;97.20;;;;;;2120335;23;20215;-68
2023/05/11 08:50:27;;;;;;;3.15;1.40;;;15.30;97.20;;;;;;2120900;23;20230;-68
2023/05/11 08:51:18;;;;;;;3.90;1.75;;;15.30;97.20;;;;;;2120892;23;20177;-68
2023/05/11 08:52:12;;;;;;;1.77;1.65;;;15.30;97.20;;;;;;2120947;23;20181;-67
2023/05/11 08:53:05;;;;;;;2.28;1.17;;;15.30;97.20;;;;;;2120993;23;20240;-68
2023/05/11 08:53:56;;;;;;;1.80;1.35;;;15.30;97.20;;;;;;2120921;23;20180;-68
2023/05/11 08:54:48;;;;;;;1.50;1.17;;;15.30;97.20;;;;;;2120882;23;20255;-68
2023/05/11 08:55:40;;;;;;;2.58;1.40;;;15.30;97.20;;;;;;2121039;23;20509;-68
2023/05/11 08:56:33;;;;;;;2.97;1.80;;;15.30;97.20;;;;;;2120912;23;20175;-67
2023/05/11 08:57:28;;;;;;;2.25;2.05;;;15.30;97.20;;;;;;2121000;23;20648;-68
2023/05/11 08:58:21;;;;;;;3.22;1.70;;;15.30;97.20;;;;;;2120977;23;20180;-68
2023/05/11 08:59:13;;;;;;;1.92;1.45;;;15.30;97.20;;;;;;2120911;23;20185;-68
2023/05/11 09:00:06;;;;;;;1.90;1.80;;;15.40;97.20;;;;;;2120086;23;20231;-67
2023/05/11 09:00:57;;;;;;;2.15;2.00;;;15.40;97.20;;;;;;2120748;23;20258;-68
2023/05/11 09:01:50;;;;;;;1.92;1.80;;;15.40;97.20;;;;;;2120627;23;20180;-68
2023/05/11 09:02:42;;;;;;;2.22;1.60;;;15.40;97.20;;;;;;2121010;23;20188;-68
2023/05/11 09:03:36;;;;;;;1.45;1.35;;;15.40;97.20;;;;;;2120957;23;20211;-68
2023/05/11 09:04:27;;;;;;;1.30;1.20;;;15.40;97.20;;;;;;2120957;23;20250;-68
2023/05/11 09:05:20;;;;;;;2.47;1.50;;;15.40;97.20;;;;;;2120915;23;20243;-68
2023/05/11 09:06:10;;;;;;;1.17;1.08;;;15.40;97.20;;;;;;2120758;23;20227;-68
2023/05/11 09:07:02;;;;;;;2.70;1.67;;;15.40;97.20;;;;;;2120920;23;20173;-68
2023/05/11 09:08:00;;;;;;;1.40;1.30;;;15.40;97.20;;;;;;2120862;23;20469;-68
2023/05/11 09:08:53;;;;;;;2.25;1.60;;;15.40;97.20;;;;;;2120982;23;20176;-68
2023/05/11 09:09:45;;;;;;;2.35;1.40;;;15.40;97.20;;;;;;2120094;23;20181;-68
2023/05/11 09:10:37;;;;;;;4.45;1.17;;;15.50;97.20;;;;;;2120855;23;20275;-67
2023/05/11 09:11:28;;;;;;;2.13;1.30;;;15.50;97.20;;;;;;2120783;23;20520;-68
2023/05/11 09:12:20;;;;;;;3.10;1.20;;;15.50;97.20;;;;;;2120776;23;20514;-68
2023/05/11 09:13:11;;;;;;;1.60;1.38;;;15.50;97.20;;;;;;2120905;23;20412;-68
2023/05/11 09:14:03;;;;;;;1.85;1.30;;;15.50;97.20;;;;;;2121348;23;20227;-68
2023/05/11 09:14:53;;;;;;;2.85;1.77;;;15.50;97.20;;;;;;2121578;23;20188;-68
2023/05/11 09:15:45;;;;;;;2.40;1.30;;;15.50;97.20;;;;;;2121648;23;20172;-68
2023/05/11 09:16:36;;;;;;;1.83;1.42;;;15.60;97.20;;;;;;2121405;23;20181;-68
2023/05/11 09:17:28;;;;;;;1.87;1.60;;;15.60;97.20;;;;;;2121476;23;20184;-68
2023/05/11 09:18:19;;;;;;;2.70;1.50;;;15.60;97.20;;;;;;2121307;23;20176;-68
2023/05/11 09:19:15;;;;;;;1.88;1.70;;;15.60;97.20;;;;;;2121236;23;20173;-68
2023/05/11 09:20:08;;;;;;;3.65;1.52;;;15.60;97.20;;;;;;2120732;23;20180;-68
2023/05/11 09:21:01;;;;;;;1.88;1.65;;;15.50;97.20;;;;;;2121478;23;20240;-67
2023/05/11 09:21:52;;;;;;;1.60;1.50;;;15.50;97.20;;;;;;2121355;23;20176;-68
2023/05/11 09:22:46;;;;;;;2.60;1.30;;;15.50;97.20;;;;;;2121623;23;20239;-67
2023/05/11 09:23:39;;;;;;;4.90;1.60;;;15.50;97.20;;;;;;2121533;23;20400;-68
2023/05/11 09:24:31;;;;;;;1.45;1.35;;;15.50;97.20;;;;;;2121476;23;20172;-68
2023/05/11 09:25:23;;;;;;;1.70;1.20;;;15.40;97.20;;;;;;2121645;23;20184;-67
2023/05/11 09:26:15;;;;;;;4.47;1.48;;;15.40;97.20;;;;;;2121528;23;20199;-67
2023/05/11 09:27:07;;;;;;;2.20;1.50;;;15.40;97.20;;;;;;2121602;23;20181;-68
2023/05/11 09:28:00;;;;;;;1.58;1.48;;;15.40;97.20;;;;;;2121532;23;20654;-68
2023/05/11 09:28:52;;;;;;;1.50;1.40;;;15.40;97.20;;;;;;2121396;23;20187;-67